Terminal Aerodrome Forecast
Issued by NWS St Louis, MO

Home | Current Version | Previous Version | Graphics & Text | Print | Product List | Glossary On
Versions: 1 2 3 4 5 6 7 8 9 10 11 12 13 14 15 16 17 18 19 20 21 22 23 24 25 26 27 28
000
FTUS43 KLSX 212300
TAFSTL
TAF
KSTL 212322Z 2200/2306 15010KT P6SM OVC028
     FM220200 17008KT P6SM VCSH OVC025
     FM220500 18010KT P6SM OVC020 WS020/21045KT
     FM221400 19012KT P6SM VCSH SCT025 OVC035
     FM221900 19010KT P6SM OVC035=

USA.gov is the U.S. government's official web portal to all federal, state and local government web resources and services.